Time;durP1;ratioP1;P1;durP2;ratioP2;P2;SDS_P1;SDS_P2;PMS_P1;PMS_P2;Temp;Humidity;BMP_temperature;BMP_pressure;BME280_temperature;BME280_humidity;BME280_pressure;Samples;Min_cycle;Max_cycle;Signal;HPM_P1;HPM_P2
2022/08/17 00:01:28;;;;;;;7.28;6.45;;;;;;;16.08;81.95;96747.09;5025792;28;20095;-58
2022/08/17 00:04:17;;;;;;;7.32;6.53;;;;;;;16.10;81.55;96749.50;5026105;28;20092;-59
2022/08/17 00:06:44;;;;;;;7.53;6.03;;;;;;;16.15;81.19;96754.06;5025926;28;20041;-58
2022/08/17 00:09:14;;;;;;;8.38;5.72;;;;;;;16.19;80.87;96755.88;5016453;28;20041;-59
2022/08/17 00:11:47;;;;;;;7.97;6.27;;;;;;;16.23;80.87;96748.69;5012470;28;20241;-58
2022/08/17 00:14:33;;;;;;;7.30;5.50;;;;;;;16.25;80.63;96749.19;5007915;28;20073;-58
2022/08/17 00:17:02;;;;;;;9.45;6.00;;;;;;;16.22;80.82;96744.34;5009920;28;20050;-59
2022/08/17 00:19:29;;;;;;;9.00;5.90;;;;;;;16.20;81.03;96741.13;5016796;28;20057;-59
2022/08/17 00:21:59;;;;;;;9.90;5.80;;;;;;;16.31;80.18;96740.88;5026310;28;20455;-58
2022/08/17 00:24:45;;;;;;;8.00;5.72;;;;;;;16.27;80.29;96739.88;5012280;28;20034;-58
2022/08/17 00:27:12;;;;;;;6.95;5.35;;;;;;;16.29;80.14;96741.19;5025065;28;20045;-60
2022/08/17 00:29:38;;;;;;;6.80;6.03;;;;;;;16.17;80.47;96738.97;5014654;28;20046;-61
2022/08/17 00:32:05;;;;;;;7.45;5.82;;;;;;;16.04;81.24;96737.06;5016882;28;20057;-58
2022/08/17 00:34:52;;;;;;;7.32;5.43;;;;;;;16.09;81.19;96739.69;5026538;28;20123;-58
2022/08/17 00:37:18;;;;;;;7.35;5.90;;;;;;;16.07;81.22;96737.25;5025253;28;20037;-58
2022/08/17 00:39:45;;;;;;;6.97;5.30;;;;;;;16.11;80.79;96734.75;5013433;28;20521;-59
2022/08/17 00:42:17;;;;;;;9.15;6.28;;;;;;;16.06;81.24;96732.91;5007263;28;20046;-59
2022/08/17 00:44:44;;;;;;;7.85;5.60;;;;;;;16.10;80.93;96728.47;5023950;28;20111;-58
2022/08/17 00:47:10;;;;;;;7.45;5.78;;;;;;;16.14;80.69;96734.13;5024696;28;20518;-59
2022/08/17 00:49:37;;;;;;;7.68;6.28;;;;;;;16.14;80.88;96722.41;5022515;28;20525;-59
2022/08/17 00:52:14;;;;;;;6.82;5.63;;;;;;;16.23;80.50;96720.56;5012342;28;20050;-59
2022/08/17 00:54:43;;;;;;;6.10;4.97;;;;;;;16.23;80.39;96721.38;5025884;28;20698;-59
2022/08/17 00:57:16;;;;;;;6.70;5.35;;;;;;;16.29;79.96;96727.53;5025137;28;20060;-58
2022/08/17 00:59:47;;;;;;;6.82;5.03;;;;;;;16.31;79.52;96730.78;5024651;28;20041;-59
2022/08/17 01:02:33;;;;;;;8.05;5.43;;;;;;;16.18;80.03;96718.75;5017811;28;20487;-59
2022/08/17 01:05:13;;;;;;;6.63;5.55;;;;;;;16.11;80.35;96715.63;5005648;28;20053;-58
2022/08/17 01:07:40;;;;;;;;;;;;;;;16.06;80.74;96719.25;5007378;28;20041;-58
2022/08/17 01:10:10;;;;;;;7.72;5.97;;;;;;;15.98;81.36;96720.78;5005602;28;19952;-58
2022/08/17 01:12:56;;;;;;;7.90;5.80;;;;;;;15.89;81.81;96725.31;5012611;28;20101;-58
2022/08/17 01:15:24;;;;;;;7.93;6.70;;;;;;;15.78;82.62;96724.69;5013437;28;20060;-57
2022/08/17 01:17:50;;;;;;;7.63;6.22;;;;;;;15.73;82.82;96725.59;5014252;28;20244;-58
2022/08/17 01:20:17;;;;;;;8.07;5.70;;;;;;;15.84;82.05;96726.22;5023779;28;20060;-58
2022/08/17 01:22:44;;;;;;;6.85;5.18;;;;;;;15.93;81.74;96725.50;5012749;28;20072;-59
2022/08/17 01:25:12;;;;;;;7.00;5.28;;;;;;;16.02;80.77;96720.16;5021622;28;20050;-58
2022/08/17 01:27:40;;;;;;;7.13;5.15;;;;;;;15.98;80.43;96728.97;5008375;28;20054;-58
2022/08/17 01:30:09;;;;;;;8.45;5.18;;;;;;;15.86;81.50;96723.97;5011975;28;20053;-58
2022/08/17 01:32:56;;;;;;;8.07;5.70;;;;;;;15.96;80.83;96733.13;5012439;28;20076;-57
2022/08/17 01:35:23;;;;;;;7.90;5.40;;;;;;;16.03;80.52;96736.25;5017881;28;20045;-59
2022/08/17 01:37:50;;;;;;;8.20;5.47;;;;;;;16.10;80.17;96741.28;5028495;28;20041;-59
2022/08/17 01:40:32;;;;;;;7.13;5.72;;;;;;;16.02;80.40;96736.53;5031290;28;20095;-59
2022/08/17 01:43:06;;;;;;;9.80;5.90;;;;;;;15.99;80.56;96729.78;5021181;28;20041;-59
2022/08/17 01:45:39;;;;;;;6.95;5.65;;;;;;;15.89;80.92;96733.50;5012279;28;20037;-59
2022/08/17 01:48:06;;;;;;;7.60;5.20;;;;;;;15.90;80.71;96732.38;5017330;28;20045;-59
2022/08/17 01:50:36;;;;;;;7.75;5.13;;;;;;;15.89;80.84;96733.50;5031123;28;20049;-58
2022/08/17 01:53:08;;;;;;;9.70;5.53;;;;;;;15.79;81.18;96734.50;5021011;28;20034;-58
2022/08/17 01:55:48;;;;;;;7.43;5.38;;;;;;;15.88;80.46;96742.00;5022239;28;20056;-59
2022/08/17 01:58:16;;;;;;;7.95;5.90;;;;;;;15.69;81.55;96738.22;5011699;28;20054;-58
2022/08/17 02:00:45;;;;;;;7.57;5.22;;;;;;;15.69;81.52;96745.59;5022492;28;20046;-58
2022/08/17 02:03:29;;;;;;;8.10;6.25;;;;;;;15.73;81.30;96741.16;5018010;28;20041;-58
2022/08/17 02:05:56;;;;;;;7.78;5.85;;;;;;;15.72;81.50;96745.00;5021572;28;20080;-59
2022/08/17 02:08:23;;;;;;;8.02;5.75;;;;;;;15.69;81.88;96745.59;5027952;28;20172;-58
2022/08/17 02:11:14;;;;;;;9.35;6.00;;;;;;;15.67;82.10;96745.88;5018075;28;20041;-59
2022/08/17 02:13:42;;;;;;;7.63;5.93;;;;;;;15.66;82.24;96748.94;5026341;28;20103;-58
2022/08/17 02:16:09;;;;;;;9.10;5.40;;;;;;;15.62;82.38;96745.97;5019768;28;20452;-57
2022/08/17 02:18:35;;;;;;;7.93;6.40;;;;;;;15.64;82.40;96741.06;5029162;28;20049;-58
2022/08/17 02:21:03;;;;;;;6.72;5.72;;;;;;;15.69;82.33;96743.69;5019426;28;20049;-57
2022/08/17 02:23:33;;;;;;;8.88;5.97;;;;;;;15.58;82.80;96743.06;5024632;28;20049;-58
2022/08/17 02:26:00;;;;;;;10.27;6.60;;;;;;;15.65;82.72;96747.31;5020756;28;20117;-59
2022/08/17 02:28:27;;;;;;;7.65;5.85;;;;;;;15.63;83.27;96742.16;5011643;28;20049;-58
2022/08/17 02:30:56;;;;;;;8.10;5.60;;;;;;;15.69;82.78;96738.22;5020827;28;20123;-59
2022/08/17 02:33:30;;;;;;;9.18;6.18;;;;;;;15.76;82.60;96742.47;5017653;28;20492;-59
2022/08/17 02:36:10;;;;;;;7.68;5.65;;;;;;;15.51;83.96;96731.72;5022283;28;20045;-58
2022/08/17 02:38:38;;;;;;;8.32;6.28;;;;;;;15.52;83.61;96729.81;5041310;28;20042;-58
2022/08/17 02:41:05;;;;;;;7.95;6.20;;;;;;;15.58;83.75;96734.88;5038736;28;20041;-59
2022/08/17 02:43:32;;;;;;;10.45;7.35;;;;;;;15.60;83.39;96742.75;5043800;28;20041;-58
2022/08/17 02:45:58;;;;;;;9.73;5.93;;;;;;;15.56;83.88;96734.34;5038779;28;20049;-58
2022/08/17 02:48:25;;;;;;;10.70;6.65;;;;;;;15.57;83.74;96735.16;5036263;28;20100;-57
2022/08/17 02:50:57;;;;;;;;;;;;;;;15.64;84.09;96724.69;5043863;28;20049;-58
2022/08/17 02:53:23;;;;;;;8.88;6.13;;;;;;;15.71;83.13;96732.47;5022867;28;19925;-58
2022/08/17 02:55:51;;;;;;;8.98;6.10;;;;;;;15.70;83.01;96722.66;5018610;28;20483;-58
2022/08/17 02:58:19;;;;;;;7.97;6.40;;;;;;;15.62;84.42;96729.63;5027159;28;20045;-58
2022/08/17 03:01:05;;;;;;;9.43;6.93;;;;;;;15.73;83.79;96725.59;5023691;28;20042;-59
2022/08/17 03:03:33;;;;;;;10.70;6.38;;;;;;;15.80;83.19;96725.19;5014185;28;20046;-58
2022/08/17 03:06:01;;;;;;;7.18;6.05;;;;;;;15.57;84.20;96725.06;5016652;28;20540;-58
2022/08/17 03:08:27;;;;;;;8.48;6.28;;;;;;;15.44;85.36;96729.38;5027706;28;20144;-58
2022/08/17 03:10:54;;;;;;;9.15;6.95;;;;;;;15.40;85.77;96743.94;5018308;28;20426;-57
2022/08/17 03:13:21;;;;;;;8.45;6.47;;;;;;;15.57;85.04;96746.91;5018855;28;20045;-58
2022/08/17 03:15:48;;;;;;;7.88;6.82;;;;;;;15.77;84.21;96752.28;5023903;28;20053;-59
2022/08/17 03:18:18;;;;;;;9.20;6.10;;;;;;;15.81;83.66;96753.31;5027692;28;20045;-59
2022/08/17 03:20:54;;;;;;;11.18;6.88;;;;;;;15.97;82.82;96753.84;5012576;28;20409;-59
2022/08/17 03:23:21;;;;;;;10.10;6.40;;;;;;;16.09;81.67;96753.34;5007342;28;20045;-58
2022/08/17 03:25:50;;;;;;;7.18;5.88;;;;;;;16.14;81.38;96755.19;5021307;28;20068;-61
2022/08/17 03:28:18;;;;;;;7.65;5.95;;;;;;;16.05;82.68;96753.16;5027288;28;20594;-61
2022/08/17 03:30:45;;;;;;;8.55;6.47;;;;;;;15.86;83.68;96761.41;5014264;28;20502;-57
2022/08/17 03:33:11;;;;;;;8.02;6.60;;;;;;;15.87;83.04;96763.00;5023329;28;20045;-58
2022/08/17 03:35:39;;;;;;;8.95;6.35;;;;;;;15.94;82.70;96768.06;5014791;28;20452;-59
2022/08/17 03:38:08;;;;;;;9.35;6.28;;;;;;;16.04;82.11;96761.63;5006548;28;20659;-59
2022/08/17 03:40:36;;;;;;;7.35;5.65;;;;;;;16.13;82.06;96759.81;5018531;28;20071;-58
2022/08/17 03:43:23;;;;;;;7.05;5.45;;;;;;;16.21;81.07;96767.31;5032122;28;20101;-58
2022/08/17 03:57:11;;;;;;;8.27;6.38;;;;;;;16.47;78.67;96779.66;5041672;28;20603;-59
2022/08/17 03:59:38;;;;;;;8.98;6.28;;;;;;;16.41;79.07;96781.69;5034795;28;21010;-58
2022/08/17 04:02:10;;;;;;;8.00;5.55;;;;;;;16.33;79.53;96779.66;5035176;28;20049;-60
2022/08/17 04:04:37;;;;;;;9.45;6.50;;;;;;;16.10;80.76;96772.16;5014387;28;20053;-60
2022/08/17 04:07:05;;;;;;;8.98;6.05;;;;;;;16.03;81.07;96768.22;5007512;28;20112;-58
2022/08/17 04:09:31;;;;;;;9.18;5.93;;;;;;;15.83;81.99;96764.72;5016103;28;20053;-59
2022/08/17 04:11:58;;;;;;;9.43;6.63;;;;;;;15.79;82.25;96769.16;5006944;28;20115;-58
2022/08/17 04:14:35;;;;;;;11.85;7.10;;;;;;;15.81;82.22;96775.16;5013277;28;20059;-59
2022/08/17 04:17:26;;;;;;;7.65;6.65;;;;;;;15.83;81.95;96771.00;5021430;28;20060;-59
2022/08/17 04:19:54;;;;;;;8.98;6.65;;;;;;;15.94;81.30;96771.66;5009327;28;20123;-59
2022/08/17 04:22:22;;;;;;;9.32;6.97;;;;;;;16.07;80.79;96772.75;5016742;28;20045;-59
2022/08/17 04:25:17;;;;;;;8.68;6.43;;;;;;;16.35;79.16;96783.69;5021897;28;20538;-60
2022/08/17 04:27:44;;;;;;;8.05;6.50;;;;;;;16.53;78.10;96789.34;5023965;28;20460;-59
2022/08/17 04:30:11;;;;;;;8.02;6.68;;;;;;;16.63;77.74;96793.78;5021090;28;20064;-59
2022/08/17 04:32:50;;;;;;;6.97;6.18;;;;;;;16.62;78.42;96798.44;5018098;28;20049;-59
2022/08/17 04:35:37;;;;;;;9.55;6.22;;;;;;;16.73;77.15;96812.69;5016064;28;20789;-59
2022/08/17 04:38:06;;;;;;;7.50;5.70;;;;;;;16.84;76.65;96810.56;5013686;28;20045;-58
2022/08/17 04:43:20;;;;;;;9.25;6.43;;;;;;;16.75;77.16;96818.69;5011828;28;20049;-55
2022/08/17 04:45:50;;;;;;;7.72;6.78;;;;;;;16.92;76.30;96814.50;5019085;28;20479;-57
2022/08/17 04:48:29;;;;;;;11.30;6.68;;;;;;;17.01;76.35;96817.31;5021134;28;20124;-56
2022/08/17 04:51:12;;;;;;;10.63;7.00;;;;;;;16.78;78.71;96825.47;5021540;28;20053;-58
2022/08/17 04:53:41;;;;;;;7.55;5.90;;;;;;;16.89;77.80;96821.38;5020029;28;20112;-55
2022/08/17 04:56:08;;;;;;;7.15;6.03;;;;;;;17.12;76.50;96829.66;5023343;28;20076;-57
2022/08/17 04:58:39;;;;;;;;;;;;;;;17.29;75.49;96823.53;5010986;28;20057;-55
2022/08/17 05:01:05;;;;;;;11.32;5.82;;;;;;;17.39;74.70;96818.91;5014963;28;20058;-57
2022/08/17 05:03:33;;;;;;;6.82;5.60;;;;;;;17.51;74.39;96824.66;5022853;28;20060;-53
2022/08/17 05:05:59;;;;;;;7.25;5.32;;;;;;;17.66;73.83;96819.94;5015469;28;20525;-57
2022/08/17 05:08:26;;;;;;;6.63;5.22;;;;;;;17.72;73.72;96809.66;5016405;28;20045;-57
2022/08/17 05:10:52;;;;;;;7.80;5.35;;;;;;;17.87;73.30;96812.00;5020565;28;20048;-55
2022/08/17 05:13:22;;;;;;;6.82;5.38;;;;;;;18.01;73.45;96813.84;5022886;28;20052;-58
2022/08/17 05:15:53;;;;;;;7.50;5.60;;;;;;;18.03;74.76;96801.44;5019864;28;20053;-57
2022/08/17 05:18:21;;;;;;;8.68;5.60;;;;;;;18.03;73.71;96812.38;5023222;28;20042;-57
2022/08/17 05:20:50;;;;;;;7.05;5.68;;;;;;;18.23;72.43;96810.25;5020399;28;20035;-57
2022/08/17 05:23:20;;;;;;;7.05;5.20;;;;;;;18.41;71.15;96808.41;5023608;28;20050;-53
2022/08/17 05:25:49;;;;;;;6.63;4.88;;;;;;;18.57;70.89;96806.03;5021813;28;20480;-54
2022/08/17 05:28:18;;;;;;;8.48;5.43;;;;;;;18.67;70.15;96809.59;5023456;28;20037;-52
2022/08/17 05:30:49;;;;;;;7.30;5.05;;;;;;;18.87;69.70;96807.38;5020038;28;20041;-56
2022/08/17 05:33:23;;;;;;;6.63;4.50;;;;;;;19.06;69.54;96799.66;5009606;28;20053;-51
2022/08/17 05:35:52;;;;;;;6.57;5.03;;;;;;;19.29;69.33;96804.19;5022320;28;20361;-55
2022/08/17 05:38:21;;;;;;;6.65;4.72;;;;;;;19.51;68.22;96811.47;5022015;28;20805;-55
2022/08/17 05:40:48;;;;;;;6.72;4.75;;;;;;;19.70;67.29;96811.13;5022557;28;20042;-52
2022/08/17 05:43:19;;;;;;;7.80;4.63;;;;;;;19.96;66.29;96804.75;5022782;28;20057;-56
2022/08/17 05:46:02;;;;;;;7.07;5.13;;;;;;;20.08;66.53;96803.31;5021561;28;20045;-57
2022/08/17 05:48:38;;;;;;;6.78;5.18;;;;;;;20.07;66.83;96813.47;5023068;28;20045;-58
2022/08/17 05:51:29;;;;;;;6.15;4.40;;;;;;;20.08;66.71;96820.56;5021631;28;20041;-56
2022/08/17 05:54:17;;;;;;;6.38;4.78;;;;;;;20.12;66.82;96816.03;5021439;28;20065;-56
2022/08/17 05:57:02;;;;;;;7.82;4.53;;;;;;;20.17;66.73;96817.00;5014371;28;20059;-55
2022/08/17 05:59:44;;;;;;;6.47;4.68;;;;;;;20.24;67.01;96820.03;5019454;28;20080;-56
2022/08/17 06:02:21;;;;;;;8.45;4.68;;;;;;;20.37;65.57;96818.19;5018998;28;20057;-55
2022/08/17 06:04:57;;;;;;;6.60;4.13;;;;;;;20.53;65.32;96822.00;5022292;28;20088;-54
2022/08/17 06:07:35;;;;;;;7.20;4.55;;;;;;;20.54;65.57;96826.38;5022718;28;20057;-57
2022/08/17 06:10:27;;;;;;;7.05;4.60;;;;;;;20.62;64.64;96832.97;5021153;28;20172;-56
2022/08/17 06:13:07;;;;;;;9.52;4.65;;;;;;;20.69;63.74;96840.72;5022254;28;20073;-54
2022/08/17 06:15:53;;;;;;;6.82;3.97;;;;;;;20.84;63.63;96846.75;5018398;28;20052;-54
2022/08/17 06:18:23;;;;;;;5.45;4.18;;;;;;;21.00;62.66;96844.25;5021226;28;20527;-53
2022/08/17 06:20:53;;;;;;;7.85;4.80;;;;;;;21.12;63.38;96843.56;5024218;28;20045;-52
2022/08/17 06:23:29;;;;;;;6.43;5.30;;;;;;;21.18;63.52;96840.28;5024692;28;20049;-59
2022/08/17 06:26:02;;;;;;;6.55;4.40;;;;;;;21.30;61.31;96850.53;5021960;28;20049;-61
2022/08/17 06:28:42;;;;;;;6.05;4.38;;;;;;;21.43;61.55;96851.41;5024891;28;20088;-61
2022/08/17 06:31:20;;;;;;;6.72;3.83;;;;;;;21.60;60.38;96854.34;5026216;28;20049;-60
2022/08/17 06:33:47;;;;;;;6.25;3.97;;;;;;;21.75;59.70;96852.97;5024388;28;20049;-60
2022/08/17 06:36:30;;;;;;;5.75;3.65;;;;;;;21.89;59.06;96853.44;5024627;28;20049;-61
2022/08/17 06:39:31;;;;;;;6.38;4.47;;;;;;;22.11;56.92;96851.44;5025867;28;20171;-61
2022/08/17 06:42:15;;;;;;;6.03;4.00;;;;;;;22.40;56.56;96863.44;5015621;28;20056;-60
2022/08/17 06:45:30;;;;;;;7.72;3.90;;;;;;;22.64;56.52;96872.94;5013987;28;20124;-61
2022/08/17 06:48:23;;;;;;;6.20;3.97;;;;;;;22.77;55.76;96865.47;5025211;28;20053;-61
2022/08/17 06:50:58;;;;;;;6.30;3.90;;;;;;;22.89;55.50;96855.56;5019610;28;20382;-61
2022/08/17 06:53:41;;;;;;;7.28;4.05;;;;;;;23.13;54.63;96851.97;5024084;28;20531;-61
2022/08/17 06:56:22;;;;;;;6.75;4.43;;;;;;;22.94;54.54;96858.91;5015441;28;20448;-61
2022/08/17 06:58:48;;;;;;;5.97;4.00;;;;;;;22.87;54.38;96847.63;5025201;28;20049;-61
2022/08/17 07:01:28;;;;;;;6.53;4.22;;;;;;;22.93;54.04;96840.75;5021748;28;20046;-61
2022/08/17 07:04:02;;;;;;;5.95;4.43;;;;;;;22.98;53.84;96842.44;5023355;28;20215;-61
2022/08/17 07:06:50;;;;;;;6.85;3.90;;;;;;;23.10;53.67;96842.44;5021932;28;20052;-61
2022/08/17 07:09:26;;;;;;;4.53;3.33;;;;;;;23.03;53.74;96838.66;5025400;28;20053;-61
2022/08/17 07:12:17;;;;;;;4.93;4.00;;;;;;;22.99;54.13;96844.03;5025360;28;20057;-63
2022/08/17 07:14:55;;;;;;;8.67;3.93;;;;;;;23.02;55.05;96845.31;5024539;28;20075;-61
2022/08/17 07:17:25;;;;;;;7.57;4.15;;;;;;;23.00;55.05;96846.47;5025413;28;20034;-61
2022/08/17 07:20:16;;;;;;;4.93;3.83;;;;;;;23.11;54.53;96846.00;5012610;28;20119;-61
2022/08/17 07:23:00;;;;;;;11.13;4.00;;;;;;;23.07;54.83;96850.63;5025132;28;20537;-61
2022/08/17 07:25:29;;;;;;;5.63;4.28;;;;;;;23.17;54.74;96847.38;5023874;28;20505;-61
2022/08/17 07:27:59;;;;;;;7.65;4.22;;;;;;;23.32;54.54;96853.31;5024678;28;20045;-61
2022/08/17 07:30:30;;;;;;;6.20;3.63;;;;;;;23.35;54.50;96863.69;5020726;28;20049;-61
2022/08/17 07:33:19;;;;;;;6.97;3.70;;;;;;;23.52;53.26;96868.94;5018439;28;20379;-61
2022/08/17 07:35:47;;;;;;;5.50;4.05;;;;;;;23.61;53.17;96868.78;5013802;28;20663;-61
2022/08/17 07:38:20;;;;;;;4.72;3.75;;;;;;;23.63;52.47;96871.22;5017929;28;20056;-61
2022/08/17 07:43:47;;;;;;;7.75;3.80;;;;;;;23.83;52.69;96865.81;5022072;28;20065;-62
2022/08/17 07:49:23;;;;;;;7.05;3.80;;;;;;;23.93;51.26;96876.41;5024185;28;20139;-61
2022/08/17 07:51:50;;;;;;;9.60;4.47;;;;;;;24.01;51.72;96882.91;5021723;28;20071;-61
2022/08/17 07:54:29;;;;;;;6.70;3.92;;;;;;;24.07;50.99;96880.69;5016783;28;20041;-62
2022/08/17 07:57:07;;;;;;;7.28;3.60;;;;;;;23.91;50.75;96889.75;5017655;28;20056;-61
2022/08/17 07:59:36;;;;;;;7.32;4.10;;;;;;;23.90;51.05;96894.50;5020189;28;20046;-61
2022/08/17 08:02:21;;;;;;;6.28;4.00;;;;;;;23.85;51.65;96891.16;5021017;28;20094;-61
2022/08/17 08:05:07;;;;;;;4.95;4.03;;;;;;;23.97;51.57;96890.31;5012681;28;20115;-61
2022/08/17 08:07:50;;;;;;;6.05;3.80;;;;;;;24.08;51.49;96894.19;5013040;28;20122;-61
2022/08/17 08:10:26;;;;;;;5.00;3.60;;;;;;;24.11;51.31;96893.50;5017474;28;20072;-61
2022/08/17 08:13:13;;;;;;;5.85;4.18;;;;;;;24.19;50.71;96896.44;5024668;28;20037;-60
2022/08/17 08:15:42;;;;;;;6.28;3.65;;;;;;;24.21;50.03;96900.47;5021055;28;20056;-61
2022/08/17 08:18:31;;;;;;;5.15;3.83;;;;;;;24.19;50.22;96902.78;5023834;28;20513;-61
2022/08/17 08:21:30;;;;;;;5.32;3.60;;;;;;;24.19;49.49;96905.56;5023615;28;20057;-61
2022/08/17 08:24:21;;;;;;;5.88;3.60;;;;;;;24.02;50.26;96915.75;5023736;28;20049;-61
2022/08/17 08:27:01;;;;;;;5.20;3.10;;;;;;;23.96;49.06;96922.69;5014270;28;20727;-61
2022/08/17 08:29:43;;;;;;;5.88;3.85;;;;;;;24.08;48.80;96923.78;5018700;28;20037;-61
2022/08/17 08:32:25;;;;;;;6.70;4.00;;;;;;;23.95;49.63;96929.34;5018401;28;20057;-61
2022/08/17 08:35:06;;;;;;;6.35;3.92;;;;;;;23.80;50.11;96932.88;5022515;28;20046;-61
2022/08/17 08:37:46;;;;;;;5.10;3.80;;;;;;;23.46;51.31;96933.88;5023353;28;20068;-61
2022/08/17 08:40:37;;;;;;;6.45;4.47;;;;;;;23.39;52.06;96928.13;5012756;28;20049;-61
2022/08/17 08:43:19;;;;;;;7.72;4.05;;;;;;;23.24;52.75;96929.63;5023840;28;20049;-61
2022/08/17 08:45:56;;;;;;;7.63;4.30;;;;;;;23.12;53.28;96938.72;5022313;28;20708;-61
2022/08/17 08:48:44;;;;;;;8.30;4.60;;;;;;;23.02;55.84;96931.69;5023021;28;20054;-61
2022/08/17 08:51:45;;;;;;;8.47;4.77;;;;;;;23.11;59.89;96929.63;5023297;28;20053;-61
2022/08/17 08:54:20;;;;;;;11.88;4.63;;;;;;;23.11;60.90;96917.78;5023739;28;20319;-61
2022/08/17 08:57:02;;;;;;;6.60;4.97;;;;;;;22.96;61.14;96930.34;5003354;28;20537;-61
2022/08/17 09:00:34;;;;;;;9.13;4.82;;;;;;;23.02;58.65;96950.22;5020682;28;20123;-61
2022/08/17 09:03:16;;;;;;;6.85;4.38;;;;;;;23.21;55.94;96950.44;5018028;28;20580;-61
2022/08/17 09:05:52;;;;;;;5.18;4.60;;;;;;;22.98;58.21;96947.34;5019870;28;20049;-61
2022/08/17 09:08:49;;;;;;;9.27;4.88;;;;;;;22.89;57.58;96955.75;5017835;28;20054;-61
2022/08/17 09:11:36;;;;;;;7.90;4.93;;;;;;;22.60;60.34;96961.09;5023313;28;20057;-61
2022/08/17 09:14:31;;;;;;;6.90;4.57;;;;;;;22.48;60.79;96952.75;5023778;28;20099;-61
2022/08/17 09:17:35;;;;;;;6.32;4.55;;;;;;;22.37;62.47;96951.59;5018278;28;20163;-61
2022/08/17 09:20:16;;;;;;;5.85;4.47;;;;;;;22.21;60.50;96941.19;5020202;28;20049;-61
2022/08/17 09:23:01;;;;;;;6.32;3.78;;;;;;;22.30;61.83;96952.16;5023324;28;20053;-61
2022/08/17 09:25:32;;;;;;;6.10;4.43;;;;;;;22.27;61.99;96952.81;5022727;28;20049;-61
2022/08/17 09:28:04;;;;;;;4.70;3.60;;;;;;;22.19;62.10;96963.59;5023653;28;20355;-62
2022/08/17 09:30:39;;;;;;;8.18;4.22;;;;;;;22.28;61.58;96954.44;5010662;28;20280;-62
2022/08/17 09:33:08;;;;;;;8.23;4.05;;;;;;;22.30;61.10;96954.91;5025225;28;20057;-61
2022/08/17 09:35:36;;;;;;;5.70;3.80;;;;;;;22.30;60.39;96960.44;5025124;28;20049;-61
2022/08/17 09:38:18;;;;;;;6.00;3.60;;;;;;;22.18;59.96;96969.44;5025534;28;20108;-61
2022/08/17 09:41:09;;;;;;;5.13;4.00;;;;;;;22.21;62.30;96966.81;5024403;28;20041;-61
2022/08/17 09:43:49;;;;;;;;;;;;;;;22.02;65.37;96969.25;5026317;28;20053;-61
2022/08/17 09:46:24;;;;;;;7.55;3.85;;;;;;;22.11;63.44;96972.75;5024790;28;20591;-61
2022/08/17 09:49:08;;;;;;;8.40;5.15;;;;;;;21.89;68.56;96979.44;5027268;28;20083;-61
2022/08/17 09:51:40;;;;;;;8.52;4.93;;;;;;;21.64;69.43;96971.00;5029244;28;20045;-61
2022/08/17 09:54:17;;;;;;;7.00;4.70;;;;;;;21.23;72.72;96982.41;5028979;28;20099;-61
2022/08/17 09:57:22;;;;;;;8.02;5.05;;;;;;;20.98;76.35;96981.41;5029232;28;20587;-61
2022/08/17 10:00:18;;;;;;;8.35;4.30;;;;;;;21.12;71.54;97004.00;5028778;28;20524;-61
2022/08/17 10:03:10;;;;;;;6.00;4.55;;;;;;;21.07;73.67;97004.19;5029101;28;20045;-61
2022/08/17 10:05:45;;;;;;;9.07;5.53;;;;;;;21.01;74.43;96998.06;5028095;28;20475;-61
2022/08/17 10:08:35;;;;;;;8.20;5.03;;;;;;;20.77;75.92;96987.59;5029267;28;20092;-61
2022/08/17 10:12:14;;;;;;;8.38;5.22;;;;;;;20.76;76.05;96981.31;5028447;28;20087;-61
2022/08/17 10:14:49;;;;;;;8.07;5.45;;;;;;;20.60;76.33;96977.47;5028997;28;20516;-60
2022/08/17 10:17:28;;;;;;;10.85;5.50;;;;;;;20.48;76.74;96989.13;5008572;28;20100;-61
2022/08/17 10:20:16;;;;;;;13.85;5.18;;;;;;;20.41;76.82;96981.38;5009427;28;20088;-61
2022/08/17 10:28:41;;;;;;;9.32;5.18;;;;;;;20.45;79.36;96982.34;5011932;28;20421;-63
2022/08/17 10:31:11;;;;;;;7.80;5.68;;;;;;;20.07;85.07;96985.78;5008219;28;20049;-63
2022/08/17 10:34:00;;;;;;;7.85;5.78;;;;;;;19.98;87.62;96978.34;5010756;28;20096;-63
2022/08/17 10:36:39;;;;;;;8.55;5.47;;;;;;;19.99;83.95;96993.72;5027623;28;20049;-63
2022/08/17 10:39:36;;;;;;;11.45;5.97;;;;;;;19.62;84.81;97002.22;5008108;28;20222;-63
2022/08/17 10:42:32;;;;;;;8.68;5.63;;;;;;;19.43;88.02;97012.69;5008088;28;20627;-63
2022/08/17 10:45:18;;;;;;;8.90;5.93;;;;;;;19.44;89.36;97022.53;5013383;28;20493;-63
2022/08/17 10:48:29;;;;;;;8.48;5.45;;;;;;;19.47;90.15;97024.63;5024020;28;20663;-64
2022/08/17 10:50:59;;;;;;;10.95;5.75;;;;;;;19.41;90.90;97025.91;5008492;28;20460;-64
2022/08/17 10:53:31;;;;;;;7.55;6.20;;;;;;;19.43;93.46;97029.97;5027707;28;20104;-64
2022/08/17 10:56:20;;;;;;;8.80;5.70;;;;;;;19.59;91.23;97033.06;5028043;28;20416;-63
2022/08/17 10:58:49;;;;;;;6.35;5.18;;;;;;;19.71;87.68;97037.09;5028281;28;20552;-63
2022/08/17 11:01:16;;;;;;;7.93;5.22;;;;;;;19.79;87.01;97047.31;5026660;28;20041;-63
2022/08/17 11:03:53;;;;;;;11.50;5.55;;;;;;;19.77;89.45;97052.31;5027742;28;20048;-63
2022/08/17 11:06:33;;;;;;;7.55;5.60;;;;;;;19.40;90.46;97058.03;5023430;28;20045;-63
2022/08/17 11:09:29;;;;;;;11.63;6.32;;;;;;;19.41;92.57;97062.41;5018908;28;20041;-63
2022/08/17 11:12:14;;;;;;;8.45;6.22;;;;;;;19.78;91.62;97064.13;5003237;28;20413;-63
2022/08/17 11:14:52;;;;;;;7.57;6.30;;;;;;;20.11;90.67;97050.78;5019639;28;20421;-63
2022/08/17 11:17:34;;;;;;;10.38;6.93;;;;;;;20.34;88.65;97058.06;5025651;28;20049;-62
2022/08/17 11:20:34;;;;;;;11.60;6.82;;;;;;;20.37;89.66;97063.72;5015567;28;20513;-63
2022/08/17 11:23:28;;;;;;;10.75;7.47;;;;;;;20.67;89.64;97052.84;5018531;28;20041;-63
2022/08/17 11:25:57;;;;;;;9.82;6.75;;;;;;;20.66;91.09;97044.91;5018737;28;20057;-63
2022/08/17 11:28:33;;;;;;;11.82;7.00;;;;;;;20.70;87.76;97034.88;5018291;28;20117;-63
2022/08/17 11:31:32;;;;;;;9.85;8.23;;;;;;;20.81;88.68;97029.81;5013861;28;20041;-63
2022/08/17 11:34:20;;;;;;;12.00;6.88;;;;;;;21.18;87.81;97029.41;5016962;28;20524;-62
2022/08/17 11:37:24;;;;;;;10.80;7.45;;;;;;;20.94;87.41;97028.03;5016943;28;20095;-63
2022/08/17 11:40:09;;;;;;;10.70;6.97;;;;;;;20.89;87.30;97037.28;5021636;28;20041;-63
2022/08/17 11:43:13;;;;;;;9.23;6.47;;;;;;;20.90;86.60;97041.63;5016593;28;20052;-63
2022/08/17 11:46:12;;;;;;;8.93;7.25;;;;;;;21.08;86.72;97046.28;5017450;28;20045;-62
2022/08/17 11:52:09;;;;;;;10.75;6.88;;;;;;;21.72;85.30;97044.50;5024981;28;20041;-63
2022/08/17 11:54:46;;;;;;;7.85;5.97;;;;;;;21.61;84.80;97041.34;5024464;28;20045;-63
2022/08/17 11:57:41;;;;;;;7.05;5.53;;;;;;;21.86;81.64;97038.78;5020319;28;20529;-62
2022/08/17 12:00:48;;;;;;;9.27;5.30;;;;;;;22.13;82.95;97033.88;5024091;28;20057;-62
2022/08/17 12:03:25;;;;;;;9.60;5.28;;;;;;;22.47;79.36;97020.94;5016576;28;20041;-63
2022/08/17 12:06:19;;;;;;;8.05;5.43;;;;;;;22.69;79.75;97015.38;5024210;28;20120;-63
2022/08/17 12:09:14;;;;;;;11.30;6.00;;;;;;;22.82;76.66;97019.78;5024927;28;20053;-63
2022/08/17 12:11:49;;;;;;;8.27;5.28;;;;;;;22.96;79.08;97007.63;5022084;28;20033;-63
2022/08/17 12:14:38;;;;;;;8.68;5.40;;;;;;;23.16;77.01;96994.06;5015382;28;20112;-63
2022/08/17 12:17:27;;;;;;;6.88;6.00;;;;;;;23.16;77.03;96994.88;5012369;28;20100;-63
2022/08/17 12:20:20;;;;;;;9.10;5.63;;;;;;;22.99;78.69;96988.41;5024347;28;20053;-63
2022/08/17 12:22:59;;;;;;;7.30;5.88;;;;;;;22.95;79.18;96979.22;5024068;28;20068;-63
2022/08/17 12:25:36;;;;;;;7.20;5.63;;;;;;;23.02;78.08;96972.28;5024016;28;20045;-63
2022/08/17 12:28:16;;;;;;;10.60;6.18;;;;;;;22.58;78.99;96968.09;5022413;28;20049;-62
2022/08/17 12:30:50;;;;;;;9.75;5.95;;;;;;;22.31;83.35;96968.38;5012992;28;20049;-63
2022/08/17 12:33:22;;;;;;;8.43;5.70;;;;;;;22.18;83.30;96974.94;5024430;28;20602;-63
2022/08/17 12:36:03;;;;;;;8.68;5.18;;;;;;;22.24;83.44;96978.31;5015399;28;20069;-63
2022/08/17 12:38:33;;;;;;;8.05;5.57;;;;;;;22.29;84.35;96964.34;5017662;28;20050;-63
2022/08/17 12:44:16;;;;;;;7.72;5.32;;;;;;;22.72;79.95;96949.28;5023706;28;20068;-62
2022/08/17 12:46:47;;;;;;;7.38;4.80;;;;;;;23.04;77.28;96945.97;5015706;28;20538;-63
2022/08/17 12:49:35;;;;;;;6.93;4.93;;;;;;;23.03;74.33;96946.31;5017676;28;20052;-62
2022/08/17 12:52:31;;;;;;;8.50;5.00;;;;;;;23.02;72.92;96944.69;5017965;28;20704;-62
2022/08/17 12:55:19;;;;;;;6.25;4.82;;;;;;;23.11;73.48;96942.63;5022709;28;20038;-62